Ride Results

Woodstock (13-09-2015)
Ride distance: 80.0 km

Outcomes - Woodstock (13-09-2015)
Division No. of Entries Retired / DNE Completed Withdrawn Ineligible V/O Percentage Completed
HW 21 - 19 2 - - 90.48%
MW 32 - 26 2 - 4 81.25%
LW 21 - 17 2 - 2 80.95%
JN 3 - 2 - - 1 66.67%
Totals 77 - 64 6 - 7 83.12%
Results - Woodstock (13-09-2015)
No. Rider Horse Place Time Leg Speeds Total
Km/Hr
H/R bpm
Heavyweight
24 Jolene Cole Baribo 1 5:46:00 16.6, 11.8 13.87 34, 49, 51 (Avg:50)
7 John Robertson Karabil Asis 1 (BC) 5:46:00 16.3, 12.0 13.87 35, 44, 45 (Avg:44)
2 Jason Duff Karabil Niko 3 6:25:00 13.4, 11.6 12.47 37, 41, 60 (Avg:50)
54 Andrew Jonkers Girilambone Comet 4 6:35:00 13.7, 10.8 12.15 30, 37, 45 (Avg:41)
35 Steve Brooks A'landell Pirate 5 6:41:00 14.2, 10.3 11.97 36, 41, 43 (Avg:42)
14 Brian Stott Sahra Sarab 6 6:42:00 14.2, 10.2 11.94 42, 41, 57 (Avg:49)
65 Gavin Peacock Chop Chop 7 6:45:00 13.4, 10.6 11.85 36, 38, 58 (Avg:48)
94 Stuart Hitchcock Farras 8 6:46:00 12.1, 11.5 11.82 36, 42, 46 (Avg:44)
6 Stephen Bennett Aloha Zac 9 6:54:00 16.3, 8.9 11.59 29, 48, 53 (Avg:50)
57 Heidi Wade Yinbilliko Shaka Zulu 10 7:31:00 12.9, 9.0 10.64 38, 44, 52 (Avg:48)
51 David Taylor Forest Dale Xasperation 11 7:41:00 12.1, 9.1 10.41 34, 44, 44 (Avg:44)
4 Martin Gregson Sangah Rose of Lilani 12 7:51:00 10.6, 9.7 10.19 39, 37, 42 (Avg:39)
38 Stuart Lymbery Aloha Typic 13 8:00:00 11.0, 9.1 10.00 33, 38, 41 (Avg:39)
93 Graeme Corin Garonne Park Mission 14 8:32:00 11.3, 7.9 9.38 34, 40, 48 (Avg:44)
29 Rod Mitchell Aloha Naja 15 9:04:00 9.4, 8.3 8.82 32, 44, 47 (Avg:45)
21 Chris Geddes Ali-Mae Spa 16 9:05:00 8.8, 8.7 8.81 44, 48, 48 (Avg:48)
75 Haydn Fisher Judstan Annie 17 9:23:00 8.1, 8.9 8.53 48, 46, 52 (Avg:49)
34 Con Bouzianis Conderosa Zaheera 18 9:34:00 9.3, 7.5 8.36 37, 39, 38 (Avg:38)
86 Ian Dreghorn Ausden Nile Prins 19 9:36:00 8.9, 7.7 8.33 36, 50, 47 (Avg:48)
8 Jack Johnson Wanstead Silver Flyer Withdrawn L1 0:00:00 - - 39, 41 (Avg:41)
70 Brad Jones KazooPark Lui Da Fly Withdrawn L1 0:00:00 - - 42, 43 (Avg:43)
Middleweight
82 Anita Ashby Lentara Park Heather 1 (BC) 5:32:00 16.6, 12.7 14.46 40, 45, 49 (Avg:47)
76 David Player Mirakhani Saa'meer 2 5:37:00 16.3, 12.6 14.24 32, 43, 50 (Avg:46)
77 Clare Feary Die Kinder Junrei 3 5:38:00 15.2, 13.2 14.20 34, 36, 42 (Avg:39)
64 Ian Burns Miss B Havin 4 6:38:00 12.7, 11.4 12.06 40, 41, 49 (Avg:45)
9 Simon Bain Dunollie Muscat 5 6:46:00 13.1, 10.7 11.82 36, 38, 46 (Avg:42)
95 April Bonham Ralvon Courier 6 6:47:00 12.1, 11.4 11.79 33, 42, 45 (Avg:43)
11 Scott Peters Castlebar Icon 7 6:50:00 11.9, 11.4 11.71 36, 41, 53 (Avg:47)
19 Ellen Vine Castlebar What's The Goss 8 6:58:00 12.6, 10.4 11.48 37, 44, 56 (Avg:50)
96 Ian Curtis Blake's Heaven Summer Reign 9 7:26:00 13.4, 8.9 10.76 32, 35, 40 (Avg:37)
84 Naomi McGaffin Sbara Glide 10 7:50:00 10.6, 9.8 10.21 36, 41, 46 (Avg:43)
5 Noni Seagrim Coolinda Park Frezja 11 7:51:00 10.6, 9.7 10.19 42, 44, 42 (Avg:43)
79 Ben Hudson Windradyne Sterling 12 7:52:00 9.8, 10.4 10.17 34, 40, 47 (Avg:43)
50 John Symons Forest Dale Belle De Jour 12 7:52:00 10.8, 9.5 10.17 31, 38, 52 (Avg:45)
39 Anne Lymbery Mountain Ash Pale Moon 14 8:00:00 11.0, 9.1 10.00 36, 43, 51 (Avg:47)
30 Carol Major Anijoa Anna 15 8:26:00 10.8, 8.4 9.49 31, 37, 39 (Avg:38)
92 Marie-Louise Corin Windsor 16 8:32:00 11.3, 7.9 9.38 31, 41, 46 (Avg:43)
12 Daphne Phillips Sajhama Jameel 17 8:40:00 9.8, 8.6 9.23 34, 39, 40 (Avg:39)
41 Shirley Clark Oso Zoltan 18 8:45:00 10.3, 8.2 9.14 36, 38, 34 (Avg:36)
40 Margaret Burge Aloha Karri 19 8:52:00 10.3, 7.9 9.02 34, 35, 46 (Avg:40)
36 Gail Pound P.F. Kudamoon 19 8:52:00 10.3, 7.9 9.02 39, 46, 54 (Avg:50)
67 Kate Gibson Oso Bettina 21 8:56:00 9.4, 8.5 8.96 34, 36, 44 (Avg:40)
59 Jo Davis Wicketly Good 22 9:20:00 9.7, 7.6 8.57 37, 40, 48 (Avg:44)
33 Tom Bouzianis Safour 23 9:34:00 9.3, 7.5 8.36 32, 34, 42 (Avg:38)
47 Erika Lindsay Kintamani Silver Motif 24 9:36:00 8.6, 8.0 8.33 30, 39, 51 (Avg:45)
88 Geraldine Stuart Espirit Jet 24 9:36:00 8.9, 7.7 8.33 41, 41, 49 (Avg:45)
69 Shelley Jones Shellal Blue 26 10:08:00 7.2, 8.6 7.89 35, 38, 48 (Avg:43)
42 Donna Georgievski Kalody Park Amarda Withdrawn L2 0:00:00 - - 42, 51, 46 (Avg:48)
48 Rochelle Knihinicki Kintamani Rose Maree Lame L2 0:00:00 8.6, 7.8 - 32, 40, 52 (Avg:46)
89 Jenny Shepheard Currowan Starlite Lame L2 0:00:00 17.3, 17.7 - 36, 45, 51 (Avg:48)
80 Erica Allan Kaminya Withdrawn L1 0:00:00 - - 40, 41 (Avg:41)
43 Michaela Araldi Tina Lame L1 0:00:00 10.7 - 34, 38 (Avg:38)
78 Mitchell Ravallion Bendora Rafiki Lame L1 0:00:00 24.7 - 37, 47 (Avg:47)
Lightweight
90 Fia Hasko-Stewart Blake's Heaven Venus 1 (BC) 5:32:00 16.6, 12.7 14.46 36, 41, 46 (Avg:43)
87 Irene Adams Shane D Survivor 2 5:37:00 15.7, 12.9 14.24 40, 40, 59 (Avg:49)
53 Linda Jonkers Girilambone Venus 3 6:36:00 13.7, 10.8 12.12 34, 37, 56 (Avg:46)
46 Indigo Noonan Orr-Brae Rajiyaah 4 6:50:00 11.9, 11.4 11.71 37, 45, 42 (Avg:43)
20 Danielle Coulton Silver Ridge Navarro 5 6:58:00 12.6, 10.4 11.48 32, 40, 51 (Avg:45)
73 Sorsha Stuart-Rokvic Oso Lee 6 6:59:00 9.8, 13.6 11.46 36, 42, 47 (Avg:44)
91 Adeline Gibson Wantley Kaliph 7 7:26:00 13.4, 8.9 10.76 34, 37, 38 (Avg:37)
74 Jo Bailey Churinga Flyer 8 7:30:00 11.3, 10.0 10.67 36, 42, 60 (Avg:51)
56 Vetea Facchini Trigger 9 7:31:00 12.9, 9.0 10.64 33, 39, 43 (Avg:41)
83 Kim Butt KMT Libberty 10 7:50:00 10.6, 9.8 10.21 34, 48, 48 (Avg:48)
25 Kristie Wright Coolahlee Park Shaman 11 7:52:00 10.7, 9.6 10.17 38, 47, 48 (Avg:47)
71 Allix Jones Wondjina Stardust 12 8:17:00 10.3, 9.0 9.66 29, 32, 38 (Avg:35)
31 Sue Todd Shakista 13 8:26:00 10.8, 8.4 9.49 34, 49, 49 (Avg:49)
58 Amy Danskin A'Landell Prestige 14 9:20:00 9.7, 7.6 8.57 29, 40, 52 (Avg:46)
49 April Newman Valinor Park Vatel 15 9:23:00 8.1, 8.9 8.53 48, 35, 40 (Avg:37)
37 Dianne Luker Topline Jetstar 16 9:29:00 8.9, 7.9 8.44 34, 41, 48 (Avg:44)
32 Louise Piddington Dani California 16 9:29:00 8.9, 7.9 8.44 28, 37, 52 (Avg:44)
81 Catherine Connors Incognito Withdrawn L2 0:00:00 - - 30, 40, 56 (Avg:48)
26 Elizabeth Grima Reggae Man Lame L1 0:00:00 8.8 - 42, 55 (Avg:55)
55 Shelly Ison Lulu Lame L1 0:00:00 10.3 - 29, 43 (Avg:43)
52 Shannen Thorsby Newbury Shaklan's Impact Withdrawn L1 0:00:00 - - 46, 50 (Avg:50)
Junior
68 Harrison Berg Al Marah Heyho Silver 1 (BC) 7:42:00 9.4, 11.5 10.39 35, 44, 48 (Avg:46)
72 Stacey Clarke Oso Emelyne 2 8:56:00 9.4, 8.5 8.96 36, 46, 42 (Avg:44)
85 Gabrielle Worth Douglas Lame L1 0:00:00 19.5 - 33, 48 (Avg:48)